createdAt,value
2022-11-22T00:01:01.042Z,85.30
2022-11-22T00:11:13.673Z,84.20
2022-11-22T00:16:20.875Z,91.40
2022-11-22T00:26:33.304Z,96.20
2022-11-22T00:31:40.534Z,77.60
2022-11-22T00:41:53.898Z,96.50
2022-11-22T00:47:00.982Z,84.20
2022-11-22T00:52:08.693Z,89.80
2022-11-22T00:57:15.671Z,88.40
2022-11-22T01:02:22.595Z,87.60
2022-11-22T01:07:29.855Z,93.40
2022-11-22T01:12:37.180Z,99.70
2022-11-22T01:22:50.860Z,76.40
2022-11-22T01:27:58.050Z,71.40
2022-11-22T01:33:05.150Z,101.40
2022-11-22T01:38:13.071Z,101.30
2022-11-22T01:43:26.401Z,98.20
2022-11-22T01:48:44.064Z,92.40
2022-11-22T01:53:52.207Z,89.10
2022-11-22T01:59:04.688Z,99.50
2022-11-22T02:04:15.084Z,83.00
2022-11-22T02:09:23.325Z,89.80
2022-11-22T02:14:31.343Z,90.50
2022-11-22T02:19:43.938Z,97.10
2022-11-22T02:24:56.796Z,85.50
2022-11-22T02:30:03.974Z,88.80
2022-11-22T02:40:26.634Z,86.40
2022-11-22T02:56:06.665Z,81.80
2022-11-22T03:01:16.996Z,92.00
2022-11-22T03:06:24.297Z,88.20
2022-11-22T03:16:37.186Z,81.80
2022-11-22T03:26:51.864Z,79.30
2022-11-22T03:32:00.702Z,95.70
2022-11-22T03:37:07.908Z,88.90
2022-11-22T03:47:28.451Z,83.80
2022-11-22T03:57:41.097Z,98.00
2022-11-22T04:07:57.327Z,103.20
2022-11-22T04:13:04.542Z,90.30
2022-11-22T04:23:20.899Z,77.10
2022-11-22T04:28:54.195Z,105.00
2022-11-22T04:33:56.837Z,93.20
2022-11-22T04:39:04.096Z,65.80
2022-11-22T04:49:35.130Z,86.60
2022-11-22T04:54:42.575Z,93.00
2022-11-22T04:59:49.607Z,90.10
2022-11-22T05:04:56.573Z,87.90
2022-11-22T05:10:03.777Z,65.40
2022-11-22T05:20:18.861Z,52.80
2022-11-22T05:25:26.299Z,72.70
2022-11-22T05:30:33.899Z,77.70
2022-11-22T05:35:40.894Z,70.80
2022-11-22T05:40:48.517Z,63.30
2022-11-22T05:45:55.640Z,58.70
2022-11-22T05:51:06.952Z,57.90
2022-11-22T05:56:15.326Z,60.20
2022-11-22T06:01:24.595Z,55.50
2022-11-22T06:06:31.982Z,70.10
2022-11-22T06:11:39.189Z,52.60
2022-11-22T06:16:46.500Z,56.40
2022-11-22T06:21:53.863Z,45.60
2022-11-22T06:27:01.497Z,47.80
2022-11-22T06:32:08.729Z,46.70
2022-11-22T06:42:22.990Z,53.00
2022-11-22T06:52:35.546Z,55.10
2022-11-22T07:01:12.343Z,55.40
2022-11-22T07:06:18.668Z,53.70
2022-11-22T07:11:24.809Z,51.70
2022-11-22T07:16:28.632Z,57.50
2022-11-22T07:21:32.382Z,58.50
2022-11-22T07:26:36.182Z,56.90
2022-11-22T07:31:40.107Z,60.00
2022-11-22T07:36:44.214Z,60.90
2022-11-22T07:41:47.774Z,55.20
2022-11-22T07:46:52.275Z,58.50
2022-11-22T07:51:55.944Z,59.70
2022-11-22T07:56:59.615Z,56.90
2022-11-22T08:02:03.375Z,56.90
2022-11-22T08:07:07.738Z,68.00
2022-11-22T08:12:11.576Z,68.00
2022-11-22T08:27:27.115Z,67.10
2022-11-22T08:32:35.066Z,65.20
2022-11-22T08:37:42.203Z,51.60
2022-11-22T08:42:50.293Z,42.80
2022-11-22T08:48:00.609Z,43.90
2022-11-22T08:58:58.389Z,45.10
2022-11-22T09:04:05.712Z,51.50
2022-11-22T09:09:36.503Z,50.30
2022-11-22T09:14:40.957Z,41.30
2022-11-22T09:19:48.556Z,35.10
2022-11-22T09:24:55.994Z,31.00
2022-11-22T09:30:04.198Z,34.30
2022-11-22T09:35:12.097Z,32.30
2022-11-22T09:40:20.291Z,31.60
2022-11-22T09:45:48.742Z,41.90
2022-11-22T09:51:03.531Z,43.40
2022-11-22T09:56:14.867Z,38.90
2022-11-22T10:01:28.315Z,30.20
2022-11-22T10:06:39.197Z,32.80
2022-11-22T10:11:51.088Z,54.80
2022-11-22T10:17:06.606Z,47.10
2022-11-22T10:22:15.840Z,47.30
2022-11-22T10:27:22.938Z,40.70
2022-11-22T10:32:38.861Z,44.90
2022-11-22T10:37:55.284Z,36.60
2022-11-22T10:43:30.037Z,44.20
2022-11-22T10:48:45.330Z,32.80
2022-11-22T10:54:05.440Z,45.80
2022-11-22T10:59:32.241Z,52.20
2022-11-22T11:04:42.103Z,35.20
2022-11-22T11:15:24.798Z,23.90
2022-11-22T11:20:38.578Z,33.90
2022-11-22T11:25:47.467Z,33.90
2022-11-22T11:30:58.850Z,39.70
2022-11-22T11:36:11.340Z,36.80
2022-11-22T11:41:22.335Z,31.90
2022-11-22T11:46:34.847Z,22.50
2022-11-22T11:51:44.576Z,28.90
2022-11-22T11:56:57.562Z,28.70
2022-11-22T12:02:12.579Z,26.60
2022-11-22T12:07:24.873Z,24.30
2022-11-22T12:12:44.583Z,29.30
2022-11-22T12:17:58.698Z,29.20
2022-11-22T12:23:18.838Z,21.00
2022-11-22T12:28:28.979Z,25.80
2022-11-22T12:33:41.414Z,26.00
2022-11-22T12:38:52.248Z,28.80
2022-11-22T12:44:02.670Z,31.90
2022-11-22T12:49:16.891Z,24.30
2022-11-22T12:54:32.448Z,27.00
2022-11-22T12:59:45.113Z,21.30
2022-11-22T13:04:57.579Z,20.00
2022-11-22T13:10:08.944Z,26.90
2022-11-22T13:15:24.376Z,21.70
2022-11-22T13:20:42.941Z,26.60
2022-11-22T13:26:03.393Z,30.80
2022-11-22T13:31:18.206Z,28.90
2022-11-22T13:36:41.539Z,35.10
2022-11-22T13:42:02.108Z,34.40
2022-11-22T13:47:40.739Z,36.00
2022-11-22T13:52:55.355Z,35.00
2022-11-22T14:03:41.934Z,35.80
2022-11-22T14:08:49.685Z,33.10
2022-11-22T14:14:08.042Z,29.00
2022-11-22T14:19:43.214Z,37.60
2022-11-22T14:25:05.347Z,33.30
2022-11-22T14:30:18.387Z,40.40
2022-11-22T14:35:30.039Z,39.00
2022-11-22T14:40:40.388Z,48.70
2022-11-22T14:45:51.940Z,30.80
2022-11-22T14:51:08.429Z,38.60
2022-11-22T14:56:24.578Z,37.00
2022-11-22T15:02:01.637Z,46.70
2022-11-22T15:09:13.537Z,35.00
2022-11-22T15:13:25.991Z,41.80
2022-11-22T15:57:34.818Z,41.50
2022-11-22T16:02:49.742Z,50.60
2022-11-22T16:07:59.008Z,46.90
2022-11-22T16:13:22.923Z,37.10
2022-11-22T16:18:30.907Z,42.50
2022-11-22T16:23:38.577Z,30.80
2022-11-22T16:28:47.185Z,30.30
2022-11-22T16:33:56.560Z,40.20
2022-11-22T16:39:03.786Z,36.60
2022-11-22T16:49:22.207Z,32.10
2022-11-22T16:54:29.545Z,29.80
2022-11-22T16:59:36.619Z,27.80
2022-11-22T17:04:45.762Z,21.80
2022-11-22T17:09:53.501Z,28.50
2022-11-22T17:15:00.791Z,33.70
2022-11-22T17:25:15.465Z,22.70
2022-11-22T17:30:23.113Z,30.50
2022-11-22T17:35:34.468Z,29.70
2022-11-22T17:40:45.086Z,19.40
2022-11-22T17:45:52.856Z,24.90
2022-11-22T17:51:00.315Z,25.50
2022-11-22T18:01:20.903Z,26.00
2022-11-22T18:06:29.781Z,28.60
2022-11-22T18:11:36.816Z,32.30
2022-11-22T18:16:43.885Z,30.70
2022-11-22T18:21:52.508Z,27.40
2022-11-22T18:27:00.156Z,26.80
2022-11-22T18:32:07.836Z,30.30
2022-11-22T18:37:15.401Z,31.30
2022-11-22T18:42:24.571Z,34.20
2022-11-22T18:47:32.444Z,32.70
2022-11-22T18:52:39.711Z,27.40
2022-11-22T19:02:53.497Z,27.20
2022-11-22T19:08:00.775Z,36.80
2022-11-22T19:13:07.990Z,30.80
2022-11-22T19:23:21.278Z,33.20
2022-11-22T19:28:30.766Z,35.10
2022-11-22T19:33:38.594Z,36.40
2022-11-22T19:38:46.470Z,35.40
2022-11-22T19:43:54.352Z,30.80
2022-11-22T19:49:02.395Z,36.10
2022-11-22T19:54:10.475Z,39.20
2022-11-22T19:59:18.533Z,29.60
2022-11-22T20:04:25.843Z,36.80
2022-11-22T20:09:33.619Z,31.00
2022-11-22T20:14:41.335Z,36.60
2022-11-22T20:19:49.472Z,44.70
2022-11-22T20:24:56.946Z,40.30
2022-11-22T20:30:04.394Z,44.80
2022-11-22T20:35:12.962Z,39.20
2022-11-22T20:40:20.567Z,39.70
2022-11-22T20:45:27.969Z,41.50
2022-11-22T20:50:35.546Z,28.60
2022-11-22T20:55:44.700Z,45.30
2022-11-22T21:00:52.227Z,44.20
2022-11-22T21:05:59.708Z,44.00
2022-11-22T21:11:09.415Z,44.10
2022-11-22T21:16:23.833Z,46.20
2022-11-22T21:21:33.610Z,45.00
2022-11-22T21:26:41.627Z,42.10
2022-11-22T21:31:49.207Z,48.70
2022-11-22T21:36:56.512Z,38.00
2022-11-22T21:47:09.378Z,44.20
2022-11-22T21:52:16.908Z,44.60
2022-11-22T21:57:23.969Z,45.30
2022-11-22T22:02:33.278Z,45.20
2022-11-22T22:07:57.025Z,41.50
2022-11-22T22:13:04.439Z,49.10
2022-11-22T22:18:12.032Z,43.30
2022-11-22T22:23:19.732Z,41.00
2022-11-22T22:28:28.279Z,44.70
2022-11-22T22:33:36.612Z,45.70
2022-11-22T22:38:43.909Z,43.70
2022-11-22T22:43:51.992Z,49.30
2022-11-22T22:49:00.476Z,48.40
2022-11-22T22:54:11.050Z,45.80
2022-11-22T22:59:18.539Z,44.70
2022-11-22T23:04:26.184Z,40.10
2022-11-22T23:09:33.625Z,47.50
2022-11-22T23:14:41.736Z,47.80
2022-11-22T23:19:48.806Z,43.40
2022-11-22T23:24:56.414Z,49.40
2022-11-22T23:35:10.894Z,46.40
2022-11-22T23:40:18.570Z,32.50
2022-11-22T23:45:25.905Z,36.80
2022-11-22T23:50:37.300Z,51.70
2022-11-22T23:55:44.910Z,62.30
